createdAt,value
2022-10-14T00:01:23.779Z,8.20
2022-10-14T00:03:51.052Z,7.47
2022-10-14T00:06:21.069Z,6.97
2022-10-14T00:08:47.684Z,6.97
2022-10-14T00:11:18.114Z,7.15
2022-10-14T00:13:45.472Z,6.63
2022-10-14T00:16:18.820Z,7.50
2022-10-14T00:18:45.601Z,7.32
2022-10-14T00:21:12.102Z,6.68
2022-10-14T00:23:38.666Z,6.70
2022-10-14T00:26:05.415Z,5.82
2022-10-14T00:28:32.010Z,6.55
2022-10-14T00:31:00.551Z,6.25
2022-10-14T00:33:28.392Z,5.95
2022-10-14T00:36:01.887Z,6.60
2022-10-14T00:38:28.609Z,5.78
2022-10-14T00:40:56.134Z,5.88
2022-10-14T00:43:25.528Z,6.73
2022-10-14T00:45:52.043Z,6.60
2022-10-14T00:48:21.224Z,7.03
2022-10-14T00:50:52.983Z,6.43
2022-10-14T00:53:19.984Z,8.18
2022-10-14T00:55:47.964Z,7.00
2022-10-14T00:58:15.676Z,6.85
2022-10-14T01:00:42.210Z,7.18
2022-10-14T01:03:20.955Z,6.93
2022-10-14T01:06:22.051Z,6.97
2022-10-14T01:09:25.101Z,6.97
2022-10-14T01:12:34.074Z,6.68
2022-10-14T01:15:03.314Z,8.38
2022-10-14T01:17:46.935Z,7.35
2022-10-14T01:20:33.435Z,7.50
2022-10-14T01:22:59.822Z,9.13
2022-10-14T01:25:33.535Z,7.30
2022-10-14T01:28:33.723Z,8.23
2022-10-14T01:31:07.094Z,7.63
2022-10-14T01:33:55.615Z,7.20
2022-10-14T01:36:31.967Z,7.10
2022-10-14T01:39:24.763Z,7.05
2022-10-14T01:42:05.699Z,7.45
2022-10-14T01:44:35.377Z,8.88
2022-10-14T01:47:03.176Z,6.97
2022-10-14T01:49:35.466Z,6.72
2022-10-14T01:52:25.771Z,6.38
2022-10-14T01:54:57.151Z,6.63
2022-10-14T01:57:28.967Z,5.95
2022-10-14T01:59:56.534Z,6.20
2022-10-14T02:02:24.639Z,5.83
2022-10-14T02:04:51.356Z,6.70
2022-10-14T02:07:26.879Z,5.45
2022-10-14T02:10:12.050Z,5.90
2022-10-14T02:13:08.624Z,5.60
2022-10-14T02:15:50.583Z,6.50
2022-10-14T02:18:34.455Z,4.90
2022-10-14T02:21:09.860Z,5.50
2022-10-14T02:23:57.967Z,5.45
2022-10-14T02:26:26.508Z,5.57
2022-10-14T02:28:55.109Z,5.23
2022-10-14T02:31:24.790Z,5.65
2022-10-14T02:33:56.071Z,4.80
2022-10-14T02:36:25.068Z,5.50
2022-10-14T02:38:54.731Z,5.88
2022-10-14T02:41:25.055Z,5.47
2022-10-14T02:43:51.646Z,6.38
2022-10-14T02:46:20.798Z,5.25
2022-10-14T02:48:47.952Z,5.63
2022-10-14T02:51:14.465Z,5.25
2022-10-14T02:53:40.935Z,6.20
2022-10-14T02:56:07.896Z,5.72
2022-10-14T02:58:34.586Z,5.47
2022-10-14T03:01:01.085Z,7.10
2022-10-14T03:03:27.706Z,6.53
2022-10-14T03:05:54.180Z,7.83
2022-10-14T03:08:20.639Z,7.32
2022-10-14T03:10:47.516Z,7.40
2022-10-14T03:13:14.527Z,6.95
2022-10-14T03:15:41.188Z,7.43
2022-10-14T03:18:07.824Z,6.50
2022-10-14T03:20:34.313Z,6.75
2022-10-14T03:23:00.815Z,6.28
2022-10-14T03:25:27.344Z,6.32
2022-10-14T03:27:53.829Z,5.47
2022-10-14T03:30:20.287Z,6.83
2022-10-14T03:32:47.006Z,6.25
2022-10-14T03:35:13.688Z,6.30
2022-10-14T03:37:40.189Z,6.22
2022-10-14T03:40:07.386Z,6.82
2022-10-14T03:42:33.872Z,6.00
2022-10-14T03:45:00.324Z,6.63
2022-10-14T03:47:26.967Z,7.22
2022-10-14T03:49:53.454Z,6.88
2022-10-14T03:52:20.185Z,7.57
2022-10-14T03:54:46.952Z,6.63
2022-10-14T03:57:13.444Z,7.20
2022-10-14T03:59:39.883Z,7.15
2022-10-14T04:02:06.447Z,7.18
2022-10-14T04:04:32.945Z,7.63
2022-10-14T04:06:59.404Z,7.03
2022-10-14T04:09:25.947Z,7.18
2022-10-14T04:11:52.402Z,7.22
2022-10-14T04:14:18.861Z,8.40
2022-10-14T04:16:49.600Z,8.38
2022-10-14T04:19:16.362Z,8.13
2022-10-14T04:21:42.883Z,7.90
2022-10-14T04:24:09.407Z,8.57
2022-10-14T04:26:35.890Z,7.28
2022-10-14T04:29:02.478Z,7.38
2022-10-14T04:31:29.142Z,8.20
2022-10-14T04:33:55.800Z,8.73
2022-10-14T04:36:22.354Z,9.00
2022-10-14T04:38:48.942Z,6.75
2022-10-14T04:41:15.648Z,7.75
2022-10-14T04:43:42.131Z,7.10
2022-10-14T04:46:08.723Z,7.43
2022-10-14T04:48:35.229Z,8.65
2022-10-14T04:51:01.706Z,8.10
2022-10-14T04:53:28.244Z,8.32
2022-10-14T04:55:54.707Z,7.87
2022-10-14T04:58:21.193Z,9.40
2022-10-14T05:00:47.755Z,7.75
2022-10-14T05:03:14.206Z,8.18
2022-10-14T05:05:40.683Z,10.75
2022-10-14T05:08:07.468Z,9.15
2022-10-14T05:10:33.953Z,8.07
2022-10-14T05:13:00.536Z,7.40
2022-10-14T05:15:27.118Z,7.70
2022-10-14T05:17:53.579Z,6.95
2022-10-14T05:20:20.184Z,6.05
2022-10-14T05:22:46.745Z,6.90
2022-10-14T05:25:13.278Z,6.03
2022-10-14T05:27:39.793Z,6.32
2022-10-14T05:30:06.920Z,7.05
2022-10-14T05:32:33.394Z,6.22
2022-10-14T05:35:00.147Z,6.45
2022-10-14T05:37:26.728Z,6.57
2022-10-14T05:39:53.825Z,5.90
2022-10-14T05:42:20.533Z,6.40
2022-10-14T05:44:47.177Z,6.68
2022-10-14T05:47:13.649Z,6.85
2022-10-14T05:49:40.103Z,7.43
2022-10-14T05:52:06.703Z,7.05
2022-10-14T05:54:33.186Z,6.28
2022-10-14T05:56:59.663Z,6.53
2022-10-14T05:59:26.181Z,7.22
2022-10-14T06:01:52.660Z,6.60
2022-10-14T06:04:20.807Z,7.45
2022-10-14T06:06:47.693Z,7.88
2022-10-14T06:09:14.593Z,8.27
2022-10-14T06:11:41.076Z,9.80
2022-10-14T06:14:08.196Z,9.55
2022-10-14T06:16:34.701Z,9.40
2022-10-14T06:19:01.366Z,9.65
2022-10-14T06:21:27.987Z,9.68
2022-10-14T06:23:54.510Z,10.23
2022-10-14T06:26:21.013Z,11.52
2022-10-14T06:28:47.637Z,9.77
2022-10-14T06:31:14.160Z,10.77
2022-10-14T06:33:40.720Z,11.95
2022-10-14T06:36:08.027Z,12.40
2022-10-14T06:38:34.552Z,11.63
2022-10-14T06:41:01.028Z,11.77
2022-10-14T06:43:27.538Z,12.20
2022-10-14T06:45:57.197Z,11.68
2022-10-14T06:48:23.727Z,12.70
2022-10-14T06:50:50.340Z,12.80
2022-10-14T06:53:16.838Z,14.43
2022-10-14T06:55:43.309Z,14.40
2022-10-14T06:58:10.122Z,13.80
2022-10-14T07:00:36.655Z,12.93
2022-10-14T07:03:03.827Z,13.68
2022-10-14T07:05:30.679Z,14.30
2022-10-14T07:07:58.285Z,14.07
2022-10-14T07:10:24.825Z,14.15
2022-10-14T07:12:54.344Z,14.90
2022-10-14T07:15:20.873Z,16.33
2022-10-14T07:17:47.348Z,15.80
2022-10-14T07:20:13.980Z,18.50
2022-10-14T07:22:40.477Z,17.20
2022-10-14T07:25:07.545Z,15.57
2022-10-14T07:27:34.094Z,15.55
2022-10-14T07:30:00.601Z,15.40
2022-10-14T07:32:27.621Z,15.30
2022-10-14T07:34:54.261Z,16.67
2022-10-14T07:37:21.215Z,15.37
2022-10-14T07:39:48.162Z,17.60
2022-10-14T07:42:14.788Z,16.38
2022-10-14T07:44:41.345Z,16.20
2022-10-14T07:47:07.847Z,17.00
2022-10-14T07:49:34.421Z,16.40
2022-10-14T07:52:00.894Z,16.95
2022-10-14T07:54:27.441Z,17.15
2022-10-14T07:56:54.038Z,16.38
2022-10-14T07:59:21.077Z,14.85
2022-10-14T08:01:49.405Z,11.70
2022-10-14T08:04:16.688Z,11.40
2022-10-14T08:06:43.392Z,13.07
2022-10-14T08:09:11.698Z,12.38
2022-10-14T08:11:39.237Z,12.35
2022-10-14T08:14:06.953Z,9.83
2022-10-14T08:16:35.262Z,10.02
2022-10-14T08:19:09.649Z,9.93
2022-10-14T08:21:39.846Z,8.05
2022-10-14T08:24:06.516Z,7.72
2022-10-14T08:26:37.935Z,6.27
2022-10-14T08:29:07.168Z,7.00
2022-10-14T08:31:34.801Z,7.25
2022-10-14T08:34:01.396Z,8.02
2022-10-14T08:36:28.141Z,8.20
2022-10-14T08:38:54.712Z,8.50
2022-10-14T08:41:58.889Z,8.63
2022-10-14T08:44:28.530Z,7.40
2022-10-14T08:47:01.308Z,5.28
2022-10-14T08:49:38.252Z,5.57
2022-10-14T08:52:10.761Z,5.47
2022-10-14T08:54:44.423Z,6.43
2022-10-14T08:57:20.305Z,7.20
2022-10-14T08:59:47.476Z,6.13
2022-10-14T09:02:23.865Z,5.53
2022-10-14T09:04:50.580Z,4.00
2022-10-14T09:07:19.777Z,4.50
2022-10-14T09:09:53.270Z,4.70
2022-10-14T09:12:32.823Z,4.18
2022-10-14T09:15:08.499Z,4.85
2022-10-14T09:17:43.199Z,3.70
2022-10-14T09:20:24.031Z,3.95
2022-10-14T09:23:18.231Z,3.40
2022-10-14T09:26:11.644Z,3.10
2022-10-14T09:28:41.059Z,3.08
2022-10-14T09:31:12.044Z,3.33
2022-10-14T09:33:42.301Z,3.47
2022-10-14T09:36:22.116Z,3.15
2022-10-14T09:38:50.665Z,2.80
2022-10-14T09:41:19.039Z,2.28
2022-10-14T09:44:16.177Z,2.10
2022-10-14T09:46:47.371Z,1.83
2022-10-14T09:49:20.950Z,1.85
2022-10-14T09:51:47.479Z,2.10
2022-10-14T09:54:30.223Z,2.20
2022-10-14T09:57:06.535Z,2.70
2022-10-14T09:59:34.062Z,1.95
2022-10-14T10:02:04.385Z,2.72
2022-10-14T10:04:44.618Z,1.90
2022-10-14T10:07:32.633Z,2.75
2022-10-14T10:10:01.561Z,2.30
2022-10-14T10:12:34.911Z,1.92
2022-10-14T10:15:05.007Z,2.22
2022-10-14T10:17:38.351Z,1.88
2022-10-14T10:20:15.823Z,1.50
2022-10-14T10:22:42.603Z,1.10
2022-10-14T10:25:09.045Z,1.88
2022-10-14T10:27:44.307Z,1.70
2022-10-14T10:30:31.675Z,1.40
2022-10-14T10:33:05.957Z,1.30
2022-10-14T10:35:53.938Z,1.10
2022-10-14T10:38:28.268Z,1.38
2022-10-14T10:41:22.335Z,1.40
2022-10-14T10:44:06.895Z,1.20
2022-10-14T10:46:39.443Z,0.90
2022-10-14T10:49:17.712Z,1.00
2022-10-14T10:52:22.947Z,1.00
2022-10-14T10:55:05.821Z,1.10
2022-10-14T10:57:53.718Z,1.40
2022-10-14T11:00:21.353Z,1.95
2022-10-14T11:02:55.590Z,1.65
2022-10-14T11:05:59.683Z,1.77
2022-10-14T11:08:48.952Z,1.50
2022-10-14T11:11:27.319Z,1.30
2022-10-14T11:14:09.949Z,1.20
2022-10-14T11:16:51.489Z,1.33
2022-10-14T11:19:35.409Z,1.38
2022-10-14T11:22:40.264Z,2.05
2022-10-14T11:25:17.098Z,1.80
2022-10-14T11:28:01.483Z,1.48
2022-10-14T11:30:43.737Z,1.95
2022-10-14T11:33:19.223Z,3.28
2022-10-14T11:35:57.798Z,2.70
2022-10-14T11:39:02.060Z,2.55
2022-10-14T11:41:53.336Z,4.65
2022-10-14T11:44:38.257Z,2.07
2022-10-14T11:47:15.266Z,1.30
2022-10-14T11:49:48.611Z,1.10
2022-10-14T11:52:27.705Z,1.30
2022-10-14T11:55:01.601Z,1.40
2022-10-14T11:57:37.823Z,1.57
2022-10-14T12:00:04.297Z,1.60
2022-10-14T12:02:40.711Z,1.38
2022-10-14T12:05:31.932Z,0.95
2022-10-14T12:08:01.649Z,0.90
2022-10-14T12:10:34.102Z,1.80
2022-10-14T12:13:01.672Z,1.20
2022-10-14T12:18:00.960Z,2.20
2022-10-14T12:20:41.086Z,2.15
2022-10-14T12:23:14.452Z,2.23
2022-10-14T12:25:55.796Z,1.80
2022-10-14T12:28:22.840Z,1.60
2022-10-14T12:30:49.936Z,2.30
2022-10-14T12:33:21.542Z,1.90
2022-10-14T12:35:57.044Z,1.80
2022-10-14T12:38:23.575Z,2.28
2022-10-14T12:40:50.061Z,4.20
2022-10-14T12:43:26.378Z,13.65
2022-10-14T12:46:10.172Z,6.18
2022-10-14T12:48:44.210Z,5.50
2022-10-14T12:51:18.223Z,8.93
2022-10-14T12:54:17.202Z,11.85
2022-10-14T12:56:53.523Z,5.75
2022-10-14T12:59:29.807Z,2.90
2022-10-14T13:02:00.460Z,1.90
2022-10-14T13:04:28.584Z,3.38
2022-10-14T13:07:35.703Z,1.70
2022-10-14T13:10:45.945Z,1.80
2022-10-14T13:13:40.842Z,2.80
2022-10-14T13:16:11.004Z,3.35
2022-10-14T13:18:43.157Z,2.65
2022-10-14T13:21:50.379Z,1.80
2022-10-14T13:24:32.249Z,1.30
2022-10-14T13:27:09.512Z,1.30
2022-10-14T13:30:23.432Z,1.27
2022-10-14T13:33:08.773Z,1.75
2022-10-14T13:36:10.717Z,1.45
2022-10-14T13:38:38.491Z,2.50
2022-10-14T13:41:06.167Z,2.05
2022-10-14T13:43:42.248Z,1.55
2022-10-14T13:46:15.237Z,3.75
2022-10-14T13:48:51.621Z,23.85
2022-10-14T13:51:35.979Z,17.08
2022-10-14T13:54:18.929Z,9.02
2022-10-14T14:00:27.829Z,4.88
2022-10-14T14:02:34.310Z,6.82
2022-10-14T14:05:00.988Z,5.20
2022-10-14T14:08:07.948Z,3.70
2022-10-14T14:10:24.276Z,4.25
2022-10-14T14:12:50.980Z,5.10
2022-10-14T14:15:22.957Z,6.00
2022-10-14T14:17:49.825Z,4.80
2022-10-14T14:20:22.756Z,2.78
2022-10-14T14:22:50.313Z,2.75
2022-10-14T14:25:36.111Z,2.10
2022-10-14T14:28:05.282Z,1.40
2022-10-14T14:30:34.750Z,1.67
2022-10-14T14:33:04.017Z,1.48
2022-10-14T14:35:30.736Z,0.98
2022-10-14T14:37:57.546Z,1.50
2022-10-14T14:40:30.757Z,1.80
2022-10-14T14:43:03.209Z,3.22
2022-10-14T14:45:42.231Z,4.10
2022-10-14T14:48:12.989Z,3.38
2022-10-14T14:50:42.899Z,3.55
2022-10-14T14:53:23.800Z,4.72
2022-10-14T14:55:53.369Z,19.30
2022-10-14T14:58:39.284Z,22.55
2022-10-14T15:01:07.149Z,8.43
2022-10-14T15:04:12.924Z,7.38
2022-10-14T15:06:35.890Z,5.57
2022-10-14T15:09:14.455Z,5.28
2022-10-14T15:11:52.629Z,5.18
2022-10-14T15:14:46.404Z,5.20
2022-10-14T15:17:38.641Z,4.65
2022-10-14T15:20:05.323Z,4.47
2022-10-14T15:22:35.265Z,3.80
2022-10-14T15:25:06.488Z,2.63
2022-10-14T15:27:32.905Z,3.08
2022-10-14T15:30:36.956Z,2.35
2022-10-14T15:33:13.901Z,2.60
2022-10-14T15:35:41.047Z,3.17
2022-10-14T15:38:17.181Z,3.15
2022-10-14T15:40:45.797Z,3.00
2022-10-14T15:43:17.438Z,4.10
2022-10-14T15:45:46.014Z,4.57
2022-10-14T15:48:19.882Z,15.00
2022-10-14T15:50:47.775Z,7.40
2022-10-14T15:53:14.250Z,8.00
2022-10-14T15:55:40.765Z,7.20
2022-10-14T15:58:07.394Z,6.45
2022-10-14T16:00:34.331Z,7.53
2022-10-14T16:03:01.071Z,12.20
2022-10-14T16:05:28.762Z,12.05
2022-10-14T16:07:58.127Z,12.10
2022-10-14T16:10:28.194Z,21.33
2022-10-14T16:12:57.193Z,26.35
2022-10-14T16:15:39.942Z,32.00
2022-10-14T16:18:06.421Z,26.80
2022-10-14T16:20:33.179Z,23.80
2022-10-14T16:22:59.744Z,23.85
2022-10-14T16:25:36.472Z,18.90
2022-10-14T16:28:06.344Z,20.70
2022-10-14T16:30:36.586Z,16.02
2022-10-14T16:33:04.530Z,14.75
2022-10-14T16:35:31.456Z,16.80
2022-10-14T16:37:58.442Z,19.75
2022-10-14T16:40:25.205Z,19.42
2022-10-14T16:42:51.892Z,21.92
2022-10-14T16:45:18.365Z,21.48
2022-10-14T16:47:44.909Z,22.48
2022-10-14T16:50:11.864Z,21.42
2022-10-14T16:52:38.461Z,20.60
2022-10-14T16:55:05.423Z,25.13
2022-10-14T16:57:31.899Z,23.98
2022-10-14T16:59:58.372Z,23.83
2022-10-14T17:02:25.194Z,16.23
2022-10-14T17:04:51.908Z,13.30
2022-10-14T17:07:18.380Z,14.93
2022-10-14T17:09:44.954Z,13.98
2022-10-14T17:12:13.876Z,12.85
2022-10-14T17:14:40.845Z,9.20
2022-10-14T17:17:07.391Z,8.80
2022-10-14T17:19:33.860Z,9.68
2022-10-14T17:22:00.319Z,12.27
2022-10-14T17:24:26.864Z,11.95
2022-10-14T17:26:53.384Z,11.85
2022-10-14T17:29:19.916Z,11.32
2022-10-14T17:31:46.584Z,13.43
2022-10-14T17:34:13.427Z,13.95
2022-10-14T17:36:40.275Z,14.32
2022-10-14T17:39:07.332Z,13.63
2022-10-14T17:41:33.848Z,12.32
2022-10-14T17:44:00.847Z,11.60
2022-10-14T17:46:45.969Z,11.50
2022-10-14T17:49:12.431Z,8.23
2022-10-14T17:51:39.255Z,8.63
2022-10-14T17:54:07.925Z,6.90
2022-10-14T17:56:36.238Z,8.25
2022-10-14T17:59:05.242Z,8.70
2022-10-14T18:01:37.772Z,9.23
2022-10-14T18:04:18.287Z,10.18
2022-10-14T18:06:45.543Z,10.35
2022-10-14T18:09:12.495Z,10.35
2022-10-14T18:12:07.155Z,10.23
2022-10-14T18:14:26.904Z,7.28
2022-10-14T18:16:53.389Z,9.25
2022-10-14T18:19:19.848Z,8.82
2022-10-14T18:21:46.599Z,6.35
2022-10-14T18:24:13.134Z,7.63
2022-10-14T18:26:39.786Z,7.20
2022-10-14T18:29:06.345Z,7.93
2022-10-14T18:31:33.035Z,5.60
2022-10-14T18:34:00.934Z,8.82
2022-10-14T18:36:29.918Z,8.38
2022-10-14T18:39:04.847Z,8.13
2022-10-14T18:41:31.421Z,8.38
2022-10-14T18:43:58.151Z,7.82
2022-10-14T18:46:27.658Z,5.18
2022-10-14T18:48:56.318Z,5.80
2022-10-14T18:51:26.174Z,7.75
2022-10-14T18:53:55.979Z,9.10
2022-10-14T18:56:25.309Z,10.80
2022-10-14T18:58:57.439Z,11.93
2022-10-14T19:01:24.843Z,11.98
2022-10-14T19:03:51.874Z,13.35
2022-10-14T19:06:19.468Z,15.07
2022-10-14T19:08:45.958Z,9.23
2022-10-14T19:11:18.680Z,14.05
2022-10-14T19:13:49.699Z,9.98
2022-10-14T19:16:19.029Z,10.93
2022-10-14T19:18:45.638Z,14.05
2022-10-14T19:21:14.350Z,14.30
2022-10-14T19:23:43.325Z,13.93
2022-10-14T19:28:47.252Z,9.32
2022-10-14T19:31:16.920Z,9.45
2022-10-14T19:33:45.334Z,9.13
2022-10-14T19:36:14.417Z,9.93
2022-10-14T19:38:47.884Z,9.65
2022-10-14T19:41:14.354Z,8.68
2022-10-14T19:43:41.026Z,8.82
2022-10-14T19:46:09.229Z,11.48
2022-10-14T19:48:36.074Z,10.75
2022-10-14T19:51:06.901Z,10.98
2022-10-14T19:53:33.979Z,8.65
2022-10-14T19:56:11.709Z,7.80
2022-10-14T19:58:42.288Z,8.30
2022-10-14T20:01:16.772Z,9.40
2022-10-14T20:03:44.064Z,9.45
2022-10-14T20:06:12.588Z,8.52
2022-10-14T20:08:39.547Z,9.25
2022-10-14T20:11:08.029Z,8.30
2022-10-14T20:13:34.921Z,8.25
2022-10-14T20:16:02.277Z,9.10
2022-10-14T20:18:30.047Z,10.52
2022-10-14T20:20:57.116Z,12.10
2022-10-14T20:23:24.972Z,7.50
2022-10-14T20:25:51.718Z,7.30
2022-10-14T20:28:18.344Z,6.65
2022-10-14T20:30:46.676Z,6.45
2022-10-14T20:33:14.024Z,6.40
2022-10-14T20:35:41.090Z,7.43
2022-10-14T20:38:07.724Z,7.30
2022-10-14T20:40:35.316Z,5.63
2022-10-14T20:43:02.662Z,7.25
2022-10-14T20:45:29.210Z,5.82
2022-10-14T20:47:55.680Z,5.90
2022-10-14T20:50:22.467Z,6.63
2022-10-14T20:52:49.532Z,5.63
2022-10-14T20:55:16.132Z,5.95
2022-10-14T20:57:42.907Z,6.85
2022-10-14T21:00:09.962Z,5.53
2022-10-14T21:02:36.509Z,6.15
2022-10-14T21:05:03.211Z,6.85
2022-10-14T21:07:29.664Z,5.53
2022-10-14T21:09:56.148Z,5.03
2022-10-14T21:12:22.950Z,4.47
2022-10-14T21:14:49.619Z,4.35
2022-10-14T21:17:16.142Z,6.80
2022-10-14T21:19:42.659Z,6.60
2022-10-14T21:22:09.700Z,6.50
2022-10-14T21:24:36.204Z,4.20
2022-10-14T21:27:02.948Z,6.35
2022-10-14T21:29:29.468Z,5.85
2022-10-14T21:31:56.246Z,7.00
2022-10-14T21:34:22.869Z,7.97
2022-10-14T21:36:49.317Z,7.47
2022-10-14T21:39:17.187Z,7.55
2022-10-14T21:41:44.488Z,9.07
2022-10-14T21:44:14.778Z,9.55
2022-10-14T21:46:41.303Z,9.00
2022-10-14T21:49:10.005Z,6.88
2022-10-14T21:51:36.924Z,7.07
2022-10-14T21:54:03.764Z,7.38
2022-10-14T21:56:30.564Z,10.50
2022-10-14T21:58:57.777Z,9.75
2022-10-14T22:01:26.826Z,12.90
2022-10-14T22:03:55.913Z,14.13
2022-10-14T22:06:23.044Z,6.93
2022-10-14T22:08:52.307Z,6.80
2022-10-14T22:11:28.026Z,8.63
2022-10-14T22:13:56.861Z,7.75
2022-10-14T22:16:23.704Z,9.93
2022-10-14T22:18:52.252Z,8.85
2022-10-14T22:21:21.557Z,6.80
2022-10-14T22:23:48.860Z,9.10
2022-10-14T22:26:18.493Z,9.95
2022-10-14T22:28:45.252Z,15.40
2022-10-14T22:31:14.972Z,7.63
2022-10-14T22:33:42.379Z,7.85
2022-10-14T22:36:10.337Z,7.25
2022-10-14T22:38:38.617Z,8.93
2022-10-14T22:41:06.784Z,8.90
2022-10-14T22:43:34.235Z,7.20
2022-10-14T22:46:10.424Z,8.27
2022-10-14T22:48:37.515Z,7.63
2022-10-14T22:51:06.199Z,6.90
2022-10-14T22:53:33.645Z,7.60
2022-10-14T22:56:00.468Z,7.50
2022-10-14T22:58:27.326Z,8.75
2022-10-14T23:00:54.090Z,7.60
2022-10-14T23:03:20.712Z,7.03
2022-10-14T23:05:47.804Z,6.00
2022-10-14T23:08:14.494Z,8.23
2022-10-14T23:10:42.228Z,9.30
2022-10-14T23:13:10.083Z,10.98
2022-10-14T23:15:36.885Z,9.45
2022-10-14T23:18:03.811Z,9.73
2022-10-14T23:20:33.368Z,7.88
2022-10-14T23:23:00.047Z,6.20
2022-10-14T23:25:26.618Z,6.63
2022-10-14T23:27:53.109Z,5.65
2022-10-14T23:30:19.642Z,9.00
2022-10-14T23:32:46.315Z,9.18
2022-10-14T23:35:12.942Z,9.13
2022-10-14T23:37:39.495Z,7.78
2022-10-14T23:40:06.669Z,7.60
2022-10-14T23:42:33.158Z,6.43
2022-10-14T23:44:59.731Z,6.03
2022-10-14T23:47:26.321Z,5.60
2022-10-14T23:49:52.862Z,5.25
2022-10-14T23:52:19.431Z,7.43
2022-10-14T23:54:46.107Z,7.45
2022-10-14T23:57:12.608Z,6.72
2022-10-14T23:59:39.124Z,5.55
